Avon, Iowa
Current Conditions -  °F | °C
As of 9:46 PM on Friday 24 Oct 2014 (Local Time) from KDSM Reporting Station
Haze Haze  
Wind Chill: 59°   Ceiling: 25000
Heat Index: 59°   Visibility: 1.2mi
Dew Point: 57°   Wind: 6mph
Humidity: 93%   Direction: 180°S
Pressure: 29.95"   Gusts: NA
Location:  41.4707°N, 93.4797°W
Report Text: KDSM 250246Z 18005KT 1 1/4SM R31/5500VP6000FT BR BKN250 15/14 A2995 RMK AO2 TWR VIS 3 T01500139
Loading
Personal Weather Stations






























Interactive Weather Map New forecast layout! Learn more

10-Day Weather Forecast

Advertisements
Track Severe Weather on mobile